Time;durP1;ratioP1;P1;durP2;ratioP2;P2;SDS_P1;SDS_P2;PMS_P1;PMS_P2;Temp;Humidity;BMP_temperature;BMP_pressure;BME280_temperature;BME280_humidity;BME280_pressure;Samples;Min_cycle;Max_cycle;Signal;HPM_P1;HPM_P2
2022/03/07 00:08:31;;;;;;;7.10;4.70;;;4.10;49.40;;;;;;20923819;28;20273;-63
2022/03/07 00:18:40;;;;;;;7.07;4.77;;;4.00;48.30;;;;;;20923023;28;20241;-62
2022/03/07 00:28:43;;;;;;;8.37;5.37;;;3.90;48.40;;;;;;20922611;28;20207;-62
2022/03/07 00:38:46;;;;;;;9.50;5.90;;;3.90;48.00;;;;;;20921415;28;20247;-62
2022/03/07 00:48:48;;;;;;;7.43;5.50;;;3.60;46.80;;;;;;20920780;28;20273;-63
2022/03/07 00:58:50;;;;;;;9.00;6.70;;;3.70;47.00;;;;;;20920268;28;20258;-62
2022/03/07 01:08:51;;;;;;;11.47;7.20;;;3.70;46.90;;;;;;20927510;28;20214;-64
2022/03/07 01:18:53;;;;;;;12.70;7.77;;;3.70;47.30;;;;;;20907892;28;20228;-64
2022/03/07 01:28:55;;;;;;;11.07;7.77;;;3.60;46.60;;;;;;20833056;28;20656;-63
2022/03/07 01:38:56;;;;;;;10.07;7.50;;;3.60;46.70;;;;;;20833974;28;20294;-62
2022/03/07 01:48:58;;;;;;;11.63;8.10;;;3.60;46.80;;;;;;20833706;28;20236;-63
2022/03/07 01:59:03;;;;;;;11.37;7.93;;;3.60;47.40;;;;;;20832970;28;20236;-63
2022/03/07 02:09:07;;;;;;;12.67;8.47;;;3.50;47.20;;;;;;20832043;28;20220;-64
2022/03/07 02:19:09;;;;;;;12.60;8.60;;;3.50;47.20;;;;;;20832564;28;20235;-63
2022/03/07 02:29:11;;;;;;;11.63;8.00;;;3.50;47.80;;;;;;20830783;28;20235;-64
2022/03/07 02:39:14;;;;;;;14.83;8.67;;;3.50;47.90;;;;;;20830377;28;20339;-65
2022/03/07 02:49:16;;;;;;;12.83;7.93;;;3.50;47.40;;;;;;20829834;28;20335;-63
2022/03/07 02:59:19;;;;;;;15.07;8.17;;;3.40;47.70;;;;;;20829172;28;20243;-63
2022/03/07 03:09:21;;;;;;;11.47;8.13;;;3.40;46.70;;;;;;20829170;28;20209;-63
2022/03/07 03:19:24;;;;;;;9.67;7.00;;;3.40;46.50;;;;;;20827885;28;20593;-62
2022/03/07 03:29:27;;;;;;;10.63;7.43;;;3.50;46.80;;;;;;20827392;28;20262;-61
2022/03/07 03:39:29;;;;;;;11.73;7.07;;;3.30;46.50;;;;;;20843828;28;20239;-62
2022/03/07 03:49:32;;;;;;;11.33;6.53;;;3.10;45.90;;;;;;20842966;28;20209;-63
2022/03/07 03:59:36;;;;;;;9.23;6.83;;;2.90;45.90;;;;;;20842306;28;20562;-65
2022/03/07 04:09:38;;;;;;;10.23;7.17;;;2.90;46.20;;;;;;20842023;28;20215;-63
2022/03/07 04:19:40;;;;;;;11.93;7.10;;;2.80;46.60;;;;;;20840697;28;20307;-63
2022/03/07 04:29:42;;;;;;;10.70;7.20;;;2.90;46.70;;;;;;20840385;28;20254;-63
2022/03/07 04:39:44;;;;;;;12.13;7.63;;;2.90;46.80;;;;;;20843020;28;20244;-63
2022/03/07 04:49:45;;;;;;;9.80;6.97;;;2.90;47.10;;;;;;20839002;28;20212;-63
2022/03/07 04:59:47;;;;;;;11.03;7.67;;;2.90;47.10;;;;;;20837442;28;20233;-64
2022/03/07 05:09:49;;;;;;;11.80;8.20;;;2.90;46.90;;;;;;20837299;28;20616;-61
2022/03/07 05:19:50;;;;;;;12.13;8.13;;;3.00;47.00;;;;;;20835118;28;20244;-63
2022/03/07 05:29:52;;;;;;;15.10;8.27;;;2.90;46.90;;;;;;20832843;28;20664;-63
2022/03/07 05:39:56;;;;;;;13.23;8.50;;;2.90;47.10;;;;;;20834110;28;20240;-61
2022/03/07 05:49:58;;;;;;;14.53;8.60;;;2.80;47.20;;;;;;20871050;28;20268;-62
2022/03/07 05:59:59;;;;;;;17.63;8.80;;;2.70;47.70;;;;;;20913228;28;20243;-64
2022/03/07 06:10:01;;;;;;;13.90;9.23;;;2.60;47.80;;;;;;20914519;28;20254;-72
2022/03/07 06:20:04;;;;;;;12.70;8.40;;;2.70;48.00;;;;;;20912594;28;20330;-66
2022/03/07 06:30:08;;;;;;;13.40;8.33;;;2.80;47.70;;;;;;20914730;28;20262;-65
2022/03/07 06:40:10;;;;;;;13.07;8.57;;;2.80;47.20;;;;;;20913481;28;20638;-65
2022/03/07 06:52:26;;;;;;;9.10;6.53;;;2.80;46.40;;;;;;20985099;28;20563;-71
2022/03/07 07:02:27;;;;;;;12.67;6.60;;;3.10;45.10;;;;;;20982344;28;20662;-69
2022/03/07 07:12:29;;;;;;;10.97;5.87;;;3.20;44.80;;;;;;20996267;28;20211;-67
2022/03/07 07:22:31;;;;;;;10.60;6.60;;;3.20;45.20;;;;;;20953173;28;20207;-63
2022/03/07 07:32:34;;;;;;;8.50;6.30;;;3.50;44.60;;;;;;20894747;28;20317;-63
2022/03/07 07:42:35;;;;;;;11.93;5.70;;;3.60;45.10;;;;;;20896094;28;20227;-63
2022/03/07 07:52:37;;;;;;;11.10;5.93;;;3.90;44.20;;;;;;20910983;28;20572;-64
2022/03/07 08:02:39;;;;;;;6.90;5.30;;;;;;;;;;20845932;28;20204;-62
2022/03/07 08:12:42;;;;;;;12.03;5.60;;;3.80;44.30;;;;;;20839866;28;20572;-67
2022/03/07 08:22:44;;;;;;;8.63;6.07;;;3.90;44.60;;;;;;20838277;28;20570;-62
2022/03/07 08:32:46;;;;;;;8.87;6.10;;;4.10;44.50;;;;;;20838492;28;20212;-65
2022/03/07 08:42:49;;;;;;;10.00;5.90;;;4.30;44.50;;;;;;20837203;28;20707;-63
2022/03/07 08:52:53;;;;;;;10.63;6.00;;;4.40;44.20;;;;;;20837170;28;20220;-62
2022/03/07 09:02:54;;;;;;;10.30;5.80;;;4.20;44.00;;;;;;20837212;28;20324;-69
2022/03/07 09:12:56;;;;;;;8.37;5.30;;;4.20;44.50;;;;;;20835273;28;20239;-63
2022/03/07 09:22:58;;;;;;;8.90;5.70;;;4.50;43.80;;;;;;20838680;28;20232;-64
2022/03/07 09:33:03;;;;;;;8.60;5.50;;;4.60;43.80;;;;;;20839165;28;20213;-64
2022/03/07 09:43:06;;;;;;;7.27;5.67;;;4.70;43.80;;;;;;20835284;28;20286;-62
2022/03/07 09:53:08;;;;;;;8.43;6.20;;;4.80;44.20;;;;;;20834806;28;20614;-61
2022/03/07 10:03:13;;;;;;;7.83;6.10;;;4.80;44.60;;;;;;20831517;28;20240;-63
2022/03/07 10:13:15;;;;;;;9.73;6.80;;;4.90;44.80;;;;;;20829221;28;20291;-63
2022/03/07 10:23:17;;;;;;;13.53;7.53;;;4.90;44.60;;;;;;20829662;28;20587;-63
2022/03/07 10:33:26;;;;;;;10.50;6.97;;;4.90;45.10;;;;;;20829012;28;20530;-62
2022/03/07 10:43:28;;;;;;;13.07;7.33;;;5.10;45.60;;;;;;20827776;28;20240;-63
2022/03/07 10:53:40;;;;;;;10.47;8.00;;;5.10;45.90;;;;;;20828226;28;20329;-63
2022/03/07 11:03:42;;;;;;;12.00;7.07;;;5.20;45.70;;;;;;20827164;28;20236;-62
2022/03/07 11:13:45;;;;;;;11.30;7.87;;;5.20;45.10;;;;;;20826590;28;20330;-62
2022/03/07 11:23:47;;;;;;;9.67;7.33;;;5.30;45.60;;;;;;20829248;28;20236;-61
2022/03/07 11:33:51;;;;;;;12.47;8.17;;;5.40;44.50;;;;;;20832019;28;20208;-65
2022/03/07 11:44:00;;;;;;;11.37;7.90;;;5.90;44.20;;;;;;20841096;28;20236;-62
2022/03/07 11:54:03;;;;;;;10.20;7.80;;;5.90;43.40;;;;;;20841617;28;20699;-63
2022/03/07 12:04:15;;;;;;;12.00;8.10;;;6.00;44.00;;;;;;20840224;28;20233;-65
2022/03/07 12:14:27;;;;;;;11.47;7.80;;;6.10;43.80;;;;;;20839474;28;20263;-64
2022/03/07 12:24:29;;;;;;;11.90;8.40;;;6.40;43.00;;;;;;20838641;28;20637;-63
2022/03/07 12:34:33;;;;;;;12.93;8.43;;;6.50;42.90;;;;;;20837655;28;20622;-63
2022/03/07 12:44:36;;;;;;;11.07;8.20;;;6.70;42.90;;;;;;20836584;28;20241;-63
2022/03/07 12:54:39;;;;;;;15.13;7.73;;;6.80;42.50;;;;;;20838122;28;20387;-65
2022/03/07 13:04:41;;;;;;;12.20;8.03;;;6.90;41.50;;;;;;20865049;28;20592;-63
2022/03/07 13:14:43;;;;;;;13.37;7.40;;;6.90;40.50;;;;;;20854903;28;20296;-64
2022/03/07 13:24:52;;;;;;;12.33;8.07;;;7.00;40.30;;;;;;20836104;28;20236;-65
2022/03/07 13:34:56;;;;;;;9.83;7.30;;;7.20;40.30;;;;;;20830690;28;20209;-62
2022/03/07 13:44:59;;;;;;;13.77;7.50;;;7.30;40.80;;;;;;20832444;28;20242;-62
2022/03/07 13:55:03;;;;;;;13.97;8.10;;;7.60;40.90;;;;;;20832086;28;20732;-68
2022/03/07 14:05:05;;;;;;;9.60;7.20;;;7.80;40.10;;;;;;20831917;28;20841;-68
2022/03/07 14:15:11;;;;;;;11.03;7.87;;;8.10;39.80;;;;;;20837566;28;20611;-70
2022/03/07 14:25:13;;;;;;;10.33;6.90;;;8.50;39.10;;;;;;20835401;28;20259;-71
2022/03/07 14:35:15;;;;;;;9.83;6.70;;;9.70;37.50;;;;;;20829680;28;20724;-73
2022/03/07 14:45:21;;;;;;;11.23;6.80;;;10.40;35.80;;;;;;20829000;28;20266;-66
2022/03/07 14:55:23;;;;;;;9.40;5.83;;;12.40;35.40;;;;;;20829209;28;20221;-62
2022/03/07 15:05:45;;;;;;;6.10;5.47;;;14.10;32.50;;;;;;20831047;28;20239;-64
2022/03/07 15:15:47;;;;;;;8.47;5.83;;;17.40;29.90;;;;;;20843348;28;20216;-65
2022/03/07 15:25:51;;;;;;;5.80;4.83;;;18.40;29.60;;;;;;20843462;28;20232;-63
2022/03/07 15:35:54;;;;;;;5.90;4.80;;;;;;;;;;20841090;28;20204;-65
2022/03/07 15:45:57;;;;;;;8.67;5.27;;;15.20;28.10;;;;;;20840347;28;20632;-66
2022/03/07 15:55:59;;;;;;;5.80;5.20;;;14.00;28.80;;;;;;20861502;28;20208;-66
2022/03/07 16:06:02;;;;;;;8.60;5.67;;;10.80;30.10;;;;;;20927349;28;20716;-62
2022/03/07 16:16:04;;;;;;;8.30;5.83;;;10.60;30.70;;;;;;20858320;28;20266;-62
2022/03/07 16:26:06;;;;;;;8.10;5.60;;;9.60;32.60;;;;;;20838530;28;20239;-70
2022/03/07 16:36:08;;;;;;;6.93;5.13;;;9.00;33.60;;;;;;20838195;28;20208;-63
2022/03/07 16:46:09;;;;;;;7.30;5.33;;;8.50;34.50;;;;;;20836850;28;20282;-70
2022/03/07 16:59:38;;;;;;;9.27;4.90;;;8.00;35.80;;;;;;21067214;28;20509;-62
2022/03/07 17:09:40;;;;;;;7.37;5.03;;;7.70;36.70;;;;;;21066167;28;20264;-63
2022/03/07 17:19:41;;;;;;;10.73;5.60;;;7.60;37.30;;;;;;21065900;28;20221;-73
2022/03/07 17:29:44;;;;;;;9.57;6.10;;;7.50;38.00;;;;;;21064978;28;20204;-64
2022/03/07 17:39:46;;;;;;;8.27;5.80;;;7.30;38.40;;;;;;21064256;28;20261;-64
2022/03/07 17:49:47;;;;;;;14.03;8.23;;;7.20;39.10;;;;;;21061387;28;20257;-63
2022/03/07 17:59:49;;;;;;;11.30;7.90;;;6.80;40.00;;;;;;21146009;28;20211;-62
2022/03/07 18:09:51;;;;;;;19.43;9.73;;;6.70;40.10;;;;;;21096624;28;20575;-62
2022/03/07 18:19:53;;;;;;;16.60;8.83;;;6.10;42.10;;;;;;21032911;28;20556;-62
2022/03/07 18:29:55;;;;;;;22.07;11.70;;;6.10;42.20;;;;;;21039619;28;20207;-63
2022/03/07 18:39:56;;;;;;;18.90;10.73;;;5.70;43.50;;;;;;21056633;28;20523;-67
2022/03/07 18:49:58;;;;;;;16.77;9.40;;;5.50;44.40;;;;;;21003168;28;20227;-64
2022/03/07 19:00:00;;;;;;;19.50;11.40;;;5.40;45.50;;;;;;21043073;28;20228;-64
2022/03/07 19:10:03;;;;;;;20.80;12.23;;;5.10;46.60;;;;;;21040109;28;20241;-72
2022/03/07 19:20:06;;;;;;;26.67;14.93;;;;;;;;;;21108367;28;20246;-69
2022/03/07 19:30:09;;;;;;;20.53;12.93;;;4.70;47.60;;;;;;21012606;28;20253;-68
2022/03/07 19:40:12;;;;;;;32.50;17.00;;;4.50;47.70;;;;;;21029299;28;20567;-65
2022/03/07 19:50:14;;;;;;;32.17;15.63;;;4.30;48.10;;;;;;21082421;28;20284;-65
2022/03/07 20:00:16;;;;;;;21.73;13.20;;;4.10;48.70;;;;;;21062150;28;20666;-64
2022/03/07 20:10:18;;;;;;;25.47;14.90;;;4.20;49.30;;;;;;20996805;28;20231;-62
2022/03/07 20:20:21;;;;;;;24.13;13.93;;;3.80;49.70;;;;;;21075822;28;20652;-65
2022/03/07 20:30:24;;;;;;;25.00;14.00;;;3.50;50.90;;;;;;21078495;28;20233;-62
2022/03/07 20:40:25;;;;;;;37.40;18.27;;;3.50;51.10;;;;;;21079065;28;20574;-63
2022/03/07 20:50:27;;;;;;;26.17;14.33;;;3.30;51.50;;;;;;21078112;28;20249;-64
2022/03/07 21:00:29;;;;;;;36.17;14.83;;;3.30;51.50;;;;;;21057232;28;20261;-65
2022/03/07 21:10:31;;;;;;;27.93;14.17;;;3.30;52.30;;;;;;20993990;28;20686;-63
2022/03/07 21:20:33;;;;;;;26.80;14.37;;;3.30;52.50;;;;;;20993723;28;20207;-64
2022/03/07 21:30:35;;;;;;;28.87;15.37;;;3.20;53.10;;;;;;20993220;28;20567;-64
2022/03/07 21:40:36;;;;;;;27.60;15.50;;;3.10;52.90;;;;;;20999393;28;20213;-65
2022/03/07 21:50:38;;;;;;;30.73;15.17;;;2.90;53.10;;;;;;21007119;28;20264;-64
2022/03/07 22:00:40;;;;;;;30.63;15.93;;;2.90;53.30;;;;;;21006154;28;20201;-67
2022/03/07 22:10:42;;;;;;;28.83;15.30;;;2.90;53.50;;;;;;21006386;28;20265;-65
2022/03/07 22:20:44;;;;;;;27.67;14.13;;;2.50;54.50;;;;;;21005172;28;20199;-64
2022/03/07 22:30:47;;;;;;;32.83;15.47;;;2.50;54.90;;;;;;21004628;28;20248;-62
2022/03/07 22:40:48;;;;;;;28.23;14.67;;;2.60;55.20;;;;;;21003926;28;20665;-64
2022/03/07 22:50:50;;;;;;;40.03;15.53;;;2.50;55.00;;;;;;21003011;28;20237;-61
2022/03/07 23:00:52;;;;;;;27.17;13.20;;;2.40;55.40;;;;;;21025931;28;20241;-64
2022/03/07 23:10:54;;;;;;;22.40;12.97;;;2.30;55.80;;;;;;21085064;28;20235;-67
2022/03/07 23:20:56;;;;;;;24.33;13.40;;;2.10;56.80;;;;;;21084852;28;20212;-64
2022/03/07 23:30:58;;;;;;;19.80;11.27;;;2.30;56.90;;;;;;21083924;28;20237;-63
2022/03/07 23:41:00;;;;;;;21.73;13.13;;;2.00;57.30;;;;;;21083173;28;20243;-63
2022/03/07 23:51:04;;;;;;;21.80;12.10;;;2.00;57.10;;;;;;21082653;28;20712;-62
